Time;durP1;ratioP1;P1;durP2;ratioP2;P2;SDS_P1;SDS_P2;PMS_P1;PMS_P2;Temp;Humidity;BMP_temperature;BMP_pressure;BME280_temperature;BME280_humidity;BME280_pressure;Samples;Min_cycle;Max_cycle;Signal;HPM_P1;HPM_P2
2023/12/31 00:03:44;;;;;;;7.15;2.38;;;;;;;6.80;100.00;100449.34;10475707;28;20382;-87
2023/12/31 00:08:45;;;;;;;7.65;3.10;;;;;;;6.91;100.00;100444.91;10457905;28;20041;-87
2023/12/31 00:13:45;;;;;;;7.00;2.53;;;;;;;6.79;100.00;100438.63;10458033;28;20037;-86
2023/12/31 00:18:46;;;;;;;4.30;2.80;;;;;;;6.65;100.00;100425.19;10447666;28;20037;-79
2023/12/31 00:23:46;;;;;;;6.85;3.00;;;;;;;6.42;100.00;100408.78;10473391;28;20048;-86
2023/12/31 00:28:47;;;;;;;6.88;3.10;;;;;;;6.20;100.00;100394.88;10457482;28;20048;-86
2023/12/31 00:33:47;;;;;;;5.93;3.20;;;;;;;6.18;100.00;100403.34;10459451;28;20401;-86
2023/12/31 00:38:48;;;;;;;9.60;3.45;;;;;;;6.07;100.00;100396.78;10459049;28;20051;-85
2023/12/31 00:43:49;;;;;;;8.52;3.60;;;;;;;5.94;100.00;100394.25;10458327;28;20029;-83
2023/12/31 00:48:49;;;;;;;10.20;3.35;;;;;;;5.85;100.00;100388.28;10458506;28;20052;-86
2023/12/31 00:53:50;;;;;;;6.93;3.92;;;;;;;5.89;100.00;100388.66;10457468;28;20029;-86
2023/12/31 00:58:50;;;;;;;5.22;3.35;;;;;;;5.91;100.00;100383.75;10473637;28;20044;-87
2023/12/31 01:03:51;;;;;;;7.75;4.10;;;;;;;6.04;100.00;100383.59;10451789;28;20045;-87
2023/12/31 01:08:51;;;;;;;5.30;3.25;;;;;;;5.99;100.00;100350.66;10458109;28;20073;-87
2023/12/31 01:13:52;;;;;;;7.25;3.40;;;;;;;6.16;100.00;100360.88;10456748;28;20041;-87
2023/12/31 01:18:52;;;;;;;4.60;2.92;;;;;;;6.05;100.00;100343.44;10456559;28;20041;-88
2023/12/31 01:23:53;;;;;;;6.45;3.45;;;;;;;6.12;100.00;100355.09;10456178;28;20037;-87
2023/12/31 01:28:53;;;;;;;6.20;3.95;;;;;;;5.94;100.00;100320.47;10473044;28;20040;-86
2023/12/31 01:33:54;;;;;;;8.63;4.53;;;;;;;6.07;100.00;100328.44;10455703;28;20075;-86
2023/12/31 01:38:54;;;;;;;8.07;4.07;;;;;;;5.93;100.00;100329.72;10463597;28;20033;-87
2023/12/31 01:44:02;;;;;;;5.80;3.90;;;;;;;5.89;100.00;100328.56;10464742;28;20041;-87
2023/12/31 01:49:03;;;;;;;7.57;3.40;;;;;;;5.82;100.00;100306.78;10464525;28;20072;-87
2023/12/31 01:54:04;;;;;;;7.18;3.90;;;;;;;5.80;100.00;100311.66;10480807;28;20044;-87
2023/12/31 01:59:04;;;;;;;10.23;3.95;;;;;;;5.81;100.00;100315.25;10446695;28;20052;-86
2023/12/31 02:04:06;;;;;;;8.48;3.78;;;;;;;5.80;100.00;100303.47;10443058;28;20045;-87
2023/12/31 02:09:08;;;;;;;7.47;3.40;;;;;;;5.88;100.00;100298.75;10459698;28;20040;-87
2023/12/31 02:14:12;;;;;;;4.85;3.22;;;;;;;5.93;100.00;100290.66;10458772;28;20096;-87
2023/12/31 02:19:12;;;;;;;6.20;3.08;;;;;;;5.88;100.00;100272.25;10458077;28;20065;-87
2023/12/31 02:24:14;;;;;;;6.90;3.00;;;;;;;5.87;100.00;100259.66;10477206;28;20048;-86
2023/12/31 02:29:15;;;;;;;3.97;2.88;;;;;;;5.96;100.00;100260.16;10461737;28;20045;-87
2023/12/31 02:34:15;;;;;;;4.53;2.65;;;;;;;5.98;100.00;100250.66;10460771;28;20029;-87
2023/12/31 02:39:16;;;;;;;3.63;2.53;;;;;;;5.99;100.00;100243.28;10444065;28;20073;-89
2023/12/31 02:44:17;;;;;;;4.50;2.55;;;;;;;6.01;100.00;100211.06;10476181;28;20049;-89
2023/12/31 02:49:18;;;;;;;3.72;2.25;;;;;;;6.05;100.00;100195.84;10459224;28;20399;-88
2023/12/31 02:54:18;;;;;;;3.95;1.83;;;;;;;6.15;100.00;100195.25;10459338;28;20037;-87
2023/12/31 02:59:19;;;;;;;4.00;2.00;;;;;;;6.13;100.00;100186.47;10419873;28;1122695;-84
2023/12/31 03:04:19;;;;;;;4.88;1.88;;;;;;;6.11;100.00;100178.50;10458195;28;20064;-89
2023/12/31 03:09:21;;;;;;;3.70;1.67;;;;;;;6.00;100.00;100165.72;10426675;28;20530;-87
2023/12/31 03:14:22;;;;;;;2.47;1.73;;;;;;;6.09;100.00;100175.19;10461307;28;20120;-87
2023/12/31 03:19:22;;;;;;;2.58;1.98;;;;;;;6.09;100.00;100152.50;10460745;28;20037;-87
2023/12/31 03:24:23;;;;;;;3.45;1.52;;;;;;;6.12;100.00;100141.91;10460458;28;20053;-87
2023/12/31 03:29:23;;;;;;;2.90;1.63;;;;;;;6.13;100.00;100120.88;10458233;28;20036;-88
2023/12/31 03:34:24;;;;;;;3.83;2.08;;;;;;;6.14;100.00;100111.59;10458719;28;20063;-87
2023/12/31 03:39:24;;;;;;;2.35;1.73;;;;;;;6.20;100.00;100116.94;10457198;28;20037;-87
2023/12/31 03:44:25;;;;;;;1.88;1.45;;;;;;;6.11;100.00;100091.03;10460451;28;20079;-85
2023/12/31 03:49:25;;;;;;;2.50;2.00;;;;;;;6.24;100.00;100107.16;10460074;28;20604;-85
2023/12/31 03:54:26;;;;;;;2.63;1.73;;;;;;;6.23;100.00;100094.56;10458570;28;20132;-87
2023/12/31 03:59:26;;;;;;;5.50;2.50;;;;;;;6.18;100.00;100089.00;10459700;28;20037;-88
2023/12/31 04:04:27;;;;;;;2.88;2.03;;;;;;;6.21;100.00;100084.94;10459251;28;20045;-90
2023/12/31 04:09:27;;;;;;;3.80;2.45;;;;;;;6.21;100.00;100082.22;10460811;28;20033;-87
2023/12/31 04:14:28;;;;;;;3.88;2.20;;;;;;;6.20;100.00;100073.19;10458873;28;20033;-89
2023/12/31 04:19:28;;;;;;;3.28;2.13;;;;;;;6.22;100.00;100056.53;10438454;28;20040;-89
2023/12/31 04:24:29;;;;;;;3.67;2.28;;;;;;;6.19;100.00;100038.72;10472985;28;20112;-88
2023/12/31 04:29:29;;;;;;;3.95;2.00;;;;;;;6.20;100.00;100028.63;10475850;28;20063;-89
2023/12/31 04:34:30;;;;;;;8.10;2.03;;;;;;;6.26;100.00;100017.56;10454830;28;20040;-85
2023/12/31 04:39:30;;;;;;;5.10;2.63;;;;;;;6.23;100.00;100001.63;10441876;28;20037;-88
2023/12/31 04:44:31;;;;;;;7.38;3.60;;;;;;;6.28;100.00;99986.38;10459817;28;20047;-89
2023/12/31 04:49:31;;;;;;;3.58;2.30;;;;;;;6.36;100.00;99983.25;10471519;28;20578;-87
2023/12/31 04:54:32;;;;;;;2.63;1.98;;;;;;;6.39;100.00;99982.75;10470806;28;20043;-87
2023/12/31 04:59:32;;;;;;;2.40;1.90;;;;;;;6.06;100.00;99921.53;10465314;28;20090;-85
2023/12/31 05:04:33;;;;;;;5.65;2.70;;;;;;;6.09;100.00;99903.81;10464046;28;20028;-87
2023/12/31 05:09:33;;;;;;;3.03;2.10;;;;;;;6.45;100.00;99938.84;10458365;28;20071;-89
2023/12/31 05:14:34;;;;;;;2.70;2.08;;;;;;;6.45;100.00;99943.50;10440312;28;20040;-87
2023/12/31 05:19:34;;;;;;;7.22;3.47;;;;;;;6.41;100.00;99921.28;10423560;28;20041;-87
2023/12/31 05:24:35;;;;;;;3.63;2.15;;;;;;;6.46;100.00;99912.31;10439960;28;20075;-87
2023/12/31 05:29:35;;;;;;;5.05;2.42;;;;;;;6.53;100.00;99907.53;10455588;28;20041;-86
2023/12/31 05:34:36;;;;;;;2.53;2.20;;;;;;;6.57;100.00;99903.16;10422312;28;20037;-87
2023/12/31 05:39:36;;;;;;;3.10;1.90;;;;;;;6.59;100.00;99892.00;10455684;28;20033;-88
2023/12/31 05:44:37;;;;;;;5.38;3.25;;;;;;;6.66;100.00;99868.84;10439537;28;20493;-85
2023/12/31 05:49:37;;;;;;;2.72;2.10;;;;;;;6.76;100.00;99859.97;10458483;28;20056;-86
2023/12/31 05:54:39;;;;;;;4.75;2.20;;;;;;;6.87;100.00;99861.72;10455458;28;20064;-87
2023/12/31 05:59:39;;;;;;;2.67;1.73;;;;;;;6.85;100.00;99832.97;10437397;28;20037;-87
2023/12/31 06:04:40;;;;;;;3.10;2.10;;;;;;;6.92;100.00;99839.06;10430070;28;20064;-87
2023/12/31 06:09:40;;;;;;;4.70;2.05;;;;;;;6.94;100.00;99819.66;10438316;28;20418;-88
2023/12/31 06:14:41;;;;;;;3.25;2.30;;;;;;;7.00;100.00;99814.00;10448820;28;20048;-88
2023/12/31 06:19:41;;;;;;;3.38;2.15;;;;;;;6.98;100.00;99796.19;10437762;28;20037;-88
2023/12/31 06:24:42;;;;;;;6.32;2.22;;;;;;;6.98;100.00;99810.69;10444970;28;20060;-87
2023/12/31 06:29:43;;;;;;;3.58;1.70;;;;;;;7.02;100.00;99784.47;10463353;28;20151;-86
2023/12/31 06:34:43;;;;;;;6.53;2.38;;;;;;;7.09;100.00;99767.84;10446256;28;20044;-86
2023/12/31 06:39:44;;;;;;;3.50;2.05;;;;;;;7.14;100.00;99770.63;10444583;28;20068;-87
2023/12/31 06:44:44;;;;;;;4.28;1.95;;;;;;;7.12;100.00;99771.97;10462612;28;20076;-87
2023/12/31 06:49:45;;;;;;;4.07;2.13;;;;;;;7.08;100.00;99761.53;10462420;28;20493;-84
2023/12/31 06:54:46;;;;;;;1.90;1.60;;;;;;;6.93;100.00;99744.97;10462498;28;20095;-87
2023/12/31 06:59:46;;;;;;;2.88;2.05;;;;;;;6.91;100.00;99733.47;10445146;28;20040;-88
2023/12/31 07:04:47;;;;;;;4.60;2.20;;;;;;;6.90;100.00;99736.44;10478592;28;20052;-87
2023/12/31 07:09:47;;;;;;;1.88;1.50;;;;;;;6.97;100.00;99737.09;10460775;28;20040;-87
2023/12/31 07:14:48;;;;;;;2.20;1.80;;;;;;;7.01;100.00;99728.09;10428222;28;20060;-87
2023/12/31 07:19:48;;;;;;;3.55;2.05;;;;;;;7.04;100.00;99732.22;10460398;28;20527;-84
2023/12/31 07:24:48;;;;;;;2.35;1.80;;;;;;;6.87;100.00;99704.97;10459855;28;20032;-85
2023/12/31 07:29:49;;;;;;;4.60;2.20;;;;;;;6.94;100.00;99700.09;10461064;28;20033;-86
2023/12/31 07:34:50;;;;;;;2.92;1.92;;;;;;;6.95;100.00;99677.13;10461320;28;20428;-86
2023/12/31 07:39:51;;;;;;;6.88;1.85;;;;;;;7.17;100.00;99692.63;10458952;28;20508;-87
2023/12/31 07:44:51;;;;;;;4.90;2.17;;;;;;;7.07;100.00;99675.06;10460096;28;20056;-86
2023/12/31 07:49:52;;;;;;;4.32;2.03;;;;;;;7.01;100.00;99672.53;10459646;28;20041;-86
2023/12/31 07:54:52;;;;;;;3.20;1.90;;;;;;;6.97;100.00;99685.91;10459500;28;20064;-81
2023/12/31 07:59:53;;;;;;;2.83;1.83;;;;;;;6.92;100.00;99672.16;10454898;28;20048;-89
2023/12/31 08:04:54;;;;;;;3.35;1.58;;;;;;;6.88;100.00;99657.34;10441142;28;20029;-87
2023/12/31 08:09:54;;;;;;;3.13;2.05;;;;;;;6.98;100.00;99657.44;10424248;28;20037;-86
2023/12/31 08:14:55;;;;;;;2.90;2.03;;;;;;;7.07;100.00;99650.44;10441544;28;20060;-86
2023/12/31 08:19:56;;;;;;;2.78;1.70;;;;;;;7.12;100.00;99641.44;10457329;28;20048;-88
2023/12/31 08:24:56;;;;;;;2.17;1.40;;;;;;;7.15;100.00;99640.06;10425040;28;20037;-87
2023/12/31 08:29:57;;;;;;;2.42;1.60;;;;;;;7.20;100.00;99635.47;10448729;28;20041;-87
2023/12/31 08:34:57;;;;;;;3.42;1.77;;;;;;;7.27;100.00;99629.75;10422955;28;20041;-88
2023/12/31 08:39:58;;;;;;;1.80;1.50;;;;;;;6.99;100.00;99565.25;10439983;28;20053;-82
2023/12/31 08:44:59;;;;;;;5.22;1.90;;;;;;;7.37;100.00;99627.09;10455727;28;20112;-88
2023/12/31 08:50:07;;;;;;;3.35;2.03;;;;;;;7.22;100.00;99597.69;10473928;28;20045;-86
2023/12/31 08:55:08;;;;;;;2.35;1.63;;;;;;;7.39;100.00;99604.94;10423258;28;20043;-86
2023/12/31 09:00:09;;;;;;;2.03;1.70;;;;;;;7.39;100.00;99594.78;10456230;28;20041;-87
2023/12/31 09:05:10;;;;;;;2.97;2.08;;;;;;;7.54;100.00;99596.78;10437916;28;20045;-87
2023/12/31 09:10:10;;;;;;;4.20;1.58;;;;;;;7.51;100.00;99582.81;10455126;28;20059;-87
2023/12/31 09:15:11;;;;;;;2.17;1.90;;;;;;;7.55;100.00;99575.72;10456131;28;20032;-88
2023/12/31 09:20:12;;;;;;;3.47;2.03;;;;;;;7.60;100.00;99592.16;10458068;28;20052;-86
2023/12/31 09:25:12;;;;;;;3.78;1.75;;;;;;;7.57;100.00;99570.81;10456706;28;20086;-88
2023/12/31 09:30:13;;;;;;;2.60;1.77;;;;;;;7.60;100.00;99564.78;10458717;28;20059;-86
2023/12/31 09:35:13;;;;;;;1.83;1.20;;;;;;;7.72;100.00;99559.91;10438478;28;20060;-88
2023/12/31 09:40:14;;;;;;;5.45;1.67;;;;;;;7.86;100.00;99544.63;10438242;28;20056;-87
2023/12/31 09:45:19;;;;;;;2.85;1.88;;;;;;;7.96;100.00;99545.72;10438847;28;20036;-90
2023/12/31 09:50:21;;;;;;;2.00;1.63;;;;;;;8.00;100.00;99541.34;10455950;28;20048;-88
2023/12/31 09:55:22;;;;;;;2.28;1.55;;;;;;;8.09;100.00;99539.75;10432011;28;20146;-87
2023/12/31 10:00:22;;;;;;;2.92;1.45;;;;;;;8.15;100.00;99526.88;10478709;28;20060;-89
2023/12/31 10:05:24;;;;;;;11.90;2.40;;;;;;;8.23;100.00;99497.00;10462928;28;20091;-88
2023/12/31 10:10:25;;;;;;;2.50;1.63;;;;;;;8.34;100.00;99508.00;10451343;28;20037;-88
2023/12/31 10:15:25;;;;;;;6.78;1.88;;;;;;;8.19;100.00;99465.75;10476477;28;20037;-86
2023/12/31 10:20:26;;;;;;;3.40;2.55;;;;;;;8.22;100.00;99456.97;10464910;28;20044;-87
2023/12/31 10:25:28;;;;;;;2.88;2.00;;;;;;;7.87;100.00;99392.84;10461267;28;20049;-87
2023/12/31 10:30:28;;;;;;;5.30;2.10;;;;;;;8.38;100.00;99454.25;10464112;28;20115;-89
2023/12/31 10:35:29;;;;;;;3.20;2.00;;;;;;;8.35;100.00;99428.19;10461669;28;20045;-88
2023/12/31 10:40:29;;;;;;;2.20;1.48;;;;;;;8.52;100.00;99438.91;10463616;28;20041;-88
2023/12/31 10:45:31;;;;;;;2.60;1.90;;;;;;;8.58;100.00;99417.75;10462243;28;20077;-87
2023/12/31 10:50:31;;;;;;;2.17;1.95;;;;;;;8.55;100.00;99380.75;10445570;28;20041;-82
2023/12/31 10:55:32;;;;;;;2.90;2.03;;;;;;;8.69;100.00;99406.50;10437623;28;20060;-89
2023/12/31 11:00:32;;;;;;;2.10;1.50;;;;;;;8.88;100.00;99409.47;10442384;28;20068;-86
2023/12/31 11:05:33;;;;;;;3.55;1.85;;;;;;;9.12;100.00;99397.88;10458769;28;20067;-86
2023/12/31 11:10:33;;;;;;;2.80;1.80;;;;;;;9.20;100.00;99385.47;10459053;28;20048;-87
2023/12/31 11:15:34;;;;;;;2.85;1.55;;;;;;;9.22;100.00;99375.00;10459302;28;20496;-88
2023/12/31 11:20:52;;;;;;;3.63;1.80;;;;;;;9.28;100.00;99384.88;10424271;28;20517;-87
2023/12/31 11:25:53;;;;;;;2.65;1.70;;;;;;;9.13;100.00;99358.31;10476015;28;20033;-90
2023/12/31 11:30:58;;;;;;;2.58;1.80;;;;;;;9.18;100.00;99357.50;10441868;28;20144;-89
2023/12/31 11:36:17;;;;;;;3.30;2.00;;;;;;;9.21;100.00;99365.16;10472792;28;20129;-89
2023/12/31 11:41:20;;;;;;;3.00;1.80;;;;;;;9.14;100.00;99350.91;10471004;28;20060;-89
2023/12/31 11:46:38;;;;;;;3.30;1.92;;;;;;;9.17;100.00;99351.16;10458505;28;20068;-88
2023/12/31 11:51:57;;;;;;;2.33;1.77;;;;;;;9.40;100.00;99359.81;10457370;28;20512;-88
2023/12/31 11:56:58;;;;;;;2.72;1.65;;;;;;;9.45;100.00;99357.88;10456622;28;20114;-87
2023/12/31 12:01:59;;;;;;;3.83;1.75;;;;;;;9.32;100.00;99363.97;10456572;28;20079;-89
2023/12/31 12:06:59;;;;;;;4.82;2.40;;;;;;;9.12;100.00;99369.59;10456527;28;20045;-86
2023/12/31 12:12:01;;;;;;;4.55;2.53;;;;;;;8.89;100.00;99369.13;10421719;28;20037;-84
2023/12/31 12:17:04;;;;;;;2.75;2.22;;;;;;;8.73;100.00;99364.78;10441522;28;20047;-89
2023/12/31 12:22:06;;;;;;;4.75;2.97;;;;;;;8.62;100.00;99392.25;10457169;28;20116;-87
2023/12/31 12:27:06;;;;;;;5.07;3.20;;;;;;;8.23;100.00;99412.03;10424512;28;20037;-88
2023/12/31 12:32:07;;;;;;;3.47;3.17;;;;;;;7.57;100.00;99423.72;10457436;28;20044;-87
2023/12/31 12:37:07;;;;;;;3.15;2.95;;;;;;;7.19;100.00;99414.00;10453541;28;20041;-82
2023/12/31 12:42:11;;;;;;;2.53;2.35;;;;;;;7.01;100.00;99394.25;10438910;28;20037;-85
2023/12/31 12:47:11;;;;;;;3.30;3.10;;;;;;;6.98;100.00;99396.69;10456487;28;20033;-81
2023/12/31 12:52:12;;;;;;;3.25;2.90;;;;;;;6.94;100.00;99406.50;10456231;28;20056;-83
2023/12/31 12:57:12;;;;;;;4.90;2.70;;;;;;;6.99;100.00;99374.53;10453989;28;20044;-86
2023/12/31 13:02:13;;;;;;;9.13;6.38;;;;;;;6.91;100.00;99358.63;10453964;28;20041;-84
2023/12/31 13:07:14;;;;;;;3.35;2.95;;;;;;;6.95;100.00;99342.50;10472728;28;20075;-82
2023/12/31 13:12:14;;;;;;;2.70;2.50;;;;;;;7.20;100.00;99358.19;10453581;28;20043;-81
2023/12/31 13:17:15;;;;;;;3.40;3.10;;;;;;;7.19;100.00;99348.31;10456565;28;20055;-82
2023/12/31 13:22:15;;;;;;;3.28;2.97;;;;;;;7.22;100.00;99337.66;10470540;28;20052;-83
2023/12/31 13:27:16;;;;;;;2.45;2.13;;;;;;;7.60;100.00;99340.19;10470615;28;20037;-83
2023/12/31 13:32:17;;;;;;;2.55;2.08;;;;;;;8.18;100.00;99327.03;10475317;28;20041;-83
2023/12/31 13:37:17;;;;;;;2.65;2.42;;;;;;;8.03;100.00;99348.97;10463803;28;20536;-84
2023/12/31 13:42:18;;;;;;;2.55;2.15;;;;;;;7.96;100.00;99359.38;10461807;28;20432;-83
2023/12/31 13:47:18;;;;;;;9.30;3.67;;;;;;;7.77;100.00;99378.28;10429606;28;20087;-86
2023/12/31 13:52:19;;;;;;;4.97;3.40;;;;;;;7.60;100.00;99368.41;10446553;28;20033;-85
2023/12/31 13:57:19;;;;;;;2.28;1.70;;;;;;;7.38;100.00;99404.25;10462706;28;20095;-83
2023/12/31 14:02:19;;;;;;;3.28;1.88;;;;;;;7.24;100.00;99419.53;10462205;28;20060;-82
2023/12/31 14:07:20;;;;;;;4.38;1.83;;;;;;;7.09;100.00;99409.34;10445083;28;20095;-83
2023/12/31 14:12:20;;;;;;;5.95;3.72;;;;;;;7.01;100.00;99427.09;10446447;28;20041;-83
2023/12/31 14:17:21;;;;;;;3.60;2.60;;;;;;;6.90;100.00;99440.97;10462019;28;20077;-83
2023/12/31 14:22:21;;;;;;;11.95;5.32;;;;;;;6.84;100.00;99448.31;10461355;28;20041;-83
2023/12/31 14:27:22;;;;;;;5.35;3.70;;;;;;;6.70;100.00;99447.13;10459905;28;20056;-85
2023/12/31 14:32:22;;;;;;;5.28;4.05;;;;;;;6.62;100.00;99441.06;10443508;28;20041;-83
2023/12/31 14:37:23;;;;;;;7.82;6.50;;;;;;;6.65;100.00;99426.06;10428576;28;20550;-84
2023/12/31 14:42:23;;;;;;;12.23;8.18;;;;;;;6.61;100.00;99422.19;10459351;28;20500;-81
2023/12/31 14:47:24;;;;;;;8.85;6.43;;;;;;;6.75;100.00;99444.44;10444312;28;20087;-84
2023/12/31 14:52:24;;;;;;;7.72;6.82;;;;;;;6.69;100.00;99431.81;10458332;28;20042;-82
2023/12/31 14:57:25;;;;;;;10.13;5.95;;;;;;;6.62;100.00;99430.13;10442894;28;20049;-83
2023/12/31 15:02:25;;;;;;;12.02;8.82;;;;;;;6.81;100.00;99462.53;10457337;28;20044;-82
2023/12/31 15:07:26;;;;;;;20.08;13.32;;;;;;;6.80;100.00;99463.59;10459540;28;20428;-84
2023/12/31 15:12:27;;;;;;;9.50;7.85;;;;;;;6.87;100.00;99469.69;10441688;28;20496;-81
2023/12/31 15:17:28;;;;;;;11.57;7.20;;;;;;;7.00;100.00;99469.19;10459357;28;20079;-80
2023/12/31 15:22:28;;;;;;;8.50;7.53;;;;;;;7.02;100.00;99458.81;10458390;28;20096;-79
2023/12/31 15:27:30;;;;;;;9.70;6.93;;;;;;;7.10;100.00;99482.13;10457358;28;20048;-81
2023/12/31 15:32:35;;;;;;;12.88;6.32;;;;;;;7.08;100.00;99468.69;10458108;28;20033;-82
2023/12/31 15:37:35;;;;;;;10.88;7.53;;;;;;;6.99;100.00;99450.34;10460550;28;20033;-82
2023/12/31 15:42:35;;;;;;;14.32;10.52;;;;;;;6.87;100.00;99447.81;10459414;28;20064;-79
2023/12/31 15:47:36;;;;;;;17.92;11.05;;;;;;;6.86;100.00;99451.59;10460016;28;20041;-81
2023/12/31 15:52:36;;;;;;;24.35;13.48;;;;;;;6.79;100.00;99440.09;10455388;28;20041;-82
2023/12/31 15:57:37;;;;;;;18.30;11.18;;;;;;;6.76;100.00;99443.34;10455089;28;20036;-78
2023/12/31 16:02:37;;;;;;;10.43;6.40;;;;;;;6.74;100.00;99456.47;10459279;28;20037;-82
2023/12/31 16:07:38;;;;;;;14.27;8.82;;;;;;;6.78;100.00;99460.31;10448806;28;20045;-81
2023/12/31 16:12:38;;;;;;;17.98;9.07;;;;;;;6.77;100.00;99456.75;10470434;28;20028;-82
2023/12/31 16:17:39;;;;;;;10.38;5.00;;;;;;;6.60;100.00;99453.38;10452285;28;20064;-82
2023/12/31 16:22:39;;;;;;;7.50;5.32;;;;;;;6.46;100.00;99470.22;10454554;28;20063;-82
2023/12/31 16:27:40;;;;;;;11.52;6.95;;;;;;;6.26;100.00;99470.03;10449308;28;20037;-84
2023/12/31 16:32:42;;;;;;;22.02;13.90;;;;;;;6.22;100.00;99491.63;10439185;28;20048;-81
2023/12/31 16:37:43;;;;;;;17.52;9.93;;;;;;;6.06;100.00;99484.38;10452053;28;20049;-83
2023/12/31 16:42:43;;;;;;;15.48;10.80;;;;;;;6.08;100.00;99490.41;10456528;28;20036;-82
2023/12/31 16:47:43;;;;;;;14.52;10.60;;;;;;;6.31;100.00;99497.44;10458324;28;20040;-83
2023/12/31 16:52:45;;;;;;;13.95;10.10;;;;;;;6.44;100.00;99488.78;10450200;28;20574;-87
2023/12/31 16:57:45;;;;;;;21.90;12.55;;;;;;;6.52;100.00;99495.69;10461192;28;20132;-89
2023/12/31 17:02:45;;;;;;;16.45;8.82;;;;;;;6.46;100.00;99485.81;10457572;28;20041;-90
2023/12/31 17:07:46;;;;;;;11.40;5.97;;;;;;;6.50;100.00;99500.59;10464211;28;20116;-90
2023/12/31 17:12:46;;;;;;;17.92;8.23;;;;;;;6.43;100.00;99475.41;10434636;28;20049;-89
2023/12/31 17:17:47;;;;;;;17.88;8.35;;;;;;;6.50;100.00;99492.41;10416605;28;20040;-80
2023/12/31 17:22:47;;;;;;;13.15;7.10;;;;;;;6.55;100.00;99489.72;10408021;28;20037;-89
2023/12/31 17:27:48;;;;;;;16.58;9.50;;;;;;;6.56;100.00;99491.34;10404602;28;20519;-90
2023/12/31 17:32:49;;;;;;;16.88;9.27;;;;;;;6.61;100.00;99496.03;10439343;28;20037;-90
2023/12/31 17:37:50;;;;;;;13.02;6.07;;;;;;;6.59;100.00;99485.34;10435935;28;20036;-90
2023/12/31 17:42:50;;;;;;;14.15;8.25;;;;;;;6.59;100.00;99485.34;10471971;28;20044;-91
2023/12/31 17:47:51;;;;;;;31.10;16.65;;;;;;;6.44;100.00;99472.38;10456984;28;20114;-90
2023/12/31 17:52:51;;;;;;;15.52;8.55;;;;;;;6.47;100.00;99479.25;10438749;28;20029;-87
2023/12/31 17:57:52;;;;;;;21.10;9.93;;;;;;;6.38;100.00;99472.63;10420168;28;20041;-86
2023/12/31 18:02:52;;;;;;;15.13;9.35;;;;;;;6.22;100.00;99467.03;10456039;28;20052;-87
2023/12/31 18:07:53;;;;;;;15.55;9.27;;;;;;;6.21;100.00;99481.75;10455440;28;20044;-91
2023/12/31 18:12:55;;;;;;;18.17;11.38;;;;;;;6.17;100.00;99483.38;10453943;28;20428;-90
2023/12/31 18:17:56;;;;;;;13.30;6.32;;;;;;;6.11;100.00;99484.41;10424258;28;20052;-89
2023/12/31 18:22:56;;;;;;;20.65;8.20;;;;;;;6.06;100.00;99470.72;10440603;28;20524;-90
2023/12/31 18:27:57;;;;;;;15.20;7.40;;;;;;;6.14;100.00;99481.16;10458575;28;20045;-89
2023/12/31 18:32:57;;;;;;;16.10;6.55;;;;;;;6.26;100.00;99481.81;10413371;28;20126;-91
2023/12/31 18:37:57;;;;;;;22.55;8.88;;;;;;;6.41;100.00;99499.44;10436119;28;20041;-90
2023/12/31 18:42:58;;;;;;;23.98;10.27;;;;;;;6.51;100.00;99477.66;10428419;28;20040;-85
2023/12/31 18:47:58;;;;;;;23.20;9.13;;;;;;;6.56;100.00;99499.56;10444382;28;21354;-88
2023/12/31 18:52:59;;;;;;;23.23;8.25;;;;;;;6.50;100.00;99497.03;10425299;28;20082;-89
2023/12/31 18:58:00;;;;;;;14.98;7.45;;;;;;;6.46;100.00;99496.75;10420914;28;20108;-89
2023/12/31 19:03:00;;;;;;;27.55;13.13;;;;;;;6.44;100.00;99493.44;10442232;28;20480;-89
2023/12/31 19:08:01;;;;;;;21.83;10.90;;;;;;;6.53;100.00;99496.50;10449424;28;20068;-89
2023/12/31 19:13:01;;;;;;;17.63;11.45;;;;;;;5.74;100.00;99380.50;10422099;28;20107;-86
2023/12/31 19:18:04;;;;;;;21.92;10.80;;;;;;;6.50;100.00;99497.88;10449391;28;20137;-91
2023/12/31 19:23:04;;;;;;;21.17;11.05;;;;;;;6.51;100.00;99510.47;10464330;28;20056;-91
2023/12/31 19:28:05;;;;;;;22.63;9.93;;;;;;;6.50;100.00;99518.91;10423243;28;20060;-92
2023/12/31 19:33:06;;;;;;;18.80;9.57;;;;;;;6.55;100.00;99516.22;10398579;28;20119;-91
2023/12/31 19:38:06;;;;;;;22.13;11.73;;;;;;;6.53;100.00;99500.09;10442364;28;20045;-87
2023/12/31 19:43:07;;;;;;;27.48;9.75;;;;;;;6.69;100.00;99513.88;10428945;28;20110;-89
2023/12/31 19:48:07;;;;;;;45.38;25.27;;;;;;;6.67;100.00;99516.84;10435950;28;20415;-88
2023/12/31 19:53:08;;;;;;;41.05;25.90;;;;;;;6.62;100.00;99509.44;10439519;28;20037;-82
2023/12/31 19:58:08;;;;;;;24.98;13.65;;;;;;;6.57;100.00;99520.31;10439030;28;20119;-86
2023/12/31 20:03:10;;;;;;;36.90;18.55;;;;;;;6.49;100.00;99509.91;10437309;28;20037;-88
2023/12/31 20:08:11;;;;;;;39.90;22.85;;;;;;;6.47;100.00;99521.09;10445666;28;20061;-88
2023/12/31 20:13:11;;;;;;;45.05;24.92;;;;;;;6.47;100.00;99520.28;10452404;28;20048;-88
2023/12/31 20:18:12;;;;;;;28.92;11.63;;;;;;;6.57;100.00;99533.19;10420169;28;20049;-85
2023/12/31 20:23:12;;;;;;;31.98;15.40;;;;;;;6.61;100.00;99521.47;10443651;28;20072;-85
2023/12/31 20:28:13;;;;;;;21.63;12.52;;;;;;;6.64;100.00;99531.88;10444315;28;20045;-80
2023/12/31 20:33:14;;;;;;;62.35;36.47;;;;;;;6.66;100.00;99524.25;10437465;28;20072;-86
2023/12/31 20:38:14;;;;;;;35.92;17.17;;;;;;;6.64;100.00;99531.88;10438014;28;20037;-83
2023/12/31 20:43:15;;;;;;;46.63;18.88;;;;;;;6.56;100.00;99532.38;10419929;28;20095;-86
2023/12/31 20:48:15;;;;;;;32.95;16.63;;;;;;;6.52;100.00;99550.38;10438223;28;20040;-87
2023/12/31 20:53:17;;;;;;;25.75;14.93;;;;;;;6.44;100.00;99531.72;10426989;28;20043;-90
2023/12/31 20:58:18;;;;;;;29.50;13.85;;;;;;;6.44;100.00;99537.19;10453386;28;20520;-88
2023/12/31 21:03:18;;;;;;;31.02;14.65;;;;;;;6.49;100.00;99542.72;10457999;28;20048;-85
2023/12/31 21:08:22;;;;;;;40.90;18.92;;;;;;;6.53;100.00;99552.03;10467244;28;20045;-88
2023/12/31 21:13:22;;;;;;;39.45;21.27;;;;;;;6.54;100.00;99550.94;10432072;28;20056;-93
2023/12/31 21:18:23;;;;;;;46.85;25.73;;;;;;;6.65;100.00;99544.47;10434905;28;20060;-86
2023/12/31 21:23:23;;;;;;;31.10;13.70;;;;;;;6.59;100.00;99522.81;10436404;28;20028;-85
2023/12/31 21:28:26;;;;;;;25.80;12.73;;;;;;;6.57;100.00;99536.75;10454687;28;20107;-82
2023/12/31 21:33:26;;;;;;;29.05;15.48;;;;;;;6.65;100.00;99540.91;10438303;28;20126;-83
2023/12/31 21:38:27;;;;;;;26.17;13.88;;;;;;;6.56;100.00;99539.75;10438375;28;20048;-80
2023/12/31 21:43:27;;;;;;;24.60;11.65;;;;;;;6.58;100.00;99543.88;10435019;28;20052;-84
2023/12/31 21:48:28;;;;;;;23.60;12.93;;;;;;;6.64;100.00;99548.28;10438054;28;20400;-84
2023/12/31 21:53:28;;;;;;;27.23;13.30;;;;;;;6.59;100.00;99542.78;10440581;28;20029;-83
2023/12/31 21:58:29;;;;;;;29.10;15.50;;;;;;;6.54;100.00;99552.84;10462787;28;20073;-84
2023/12/31 22:03:31;;;;;;;19.15;11.60;;;;;;;6.52;100.00;99546.81;10429215;28;20033;-87
2023/12/31 22:08:31;;;;;;;66.75;38.80;;;;;;;6.57;100.00;99558.63;10429840;28;20041;-83
2023/12/31 22:13:32;;;;;;;64.10;40.58;;;;;;;6.49;100.00;99545.44;10410929;28;20037;-88
2023/12/31 22:18:32;;;;;;;30.45;19.60;;;;;;;6.50;100.00;99547.06;10445287;28;20044;-90
2023/12/31 22:23:33;;;;;;;60.53;37.70;;;;;;;6.48;100.00;99549.25;10458738;28;20056;-84
2023/12/31 22:28:33;;;;;;;39.20;22.63;;;;;;;6.59;100.00;99572.03;10443722;28;20091;-86
2023/12/31 22:33:34;;;;;;;44.88;25.77;;;;;;;6.54;100.00;99548.22;10445863;28;20090;-91
2023/12/31 22:38:34;;;;;;;56.95;37.28;;;;;;;6.47;100.00;99547.63;10427607;28;20037;-88
2023/12/31 22:43:35;;;;;;;65.25;25.75;;;;;;;6.54;100.00;99552.84;10441575;28;20040;-85
2023/12/31 22:48:35;;;;;;;64.72;33.15;;;;;;;6.54;100.00;99563.78;10444388;28;20049;-87
2023/12/31 22:53:36;;;;;;;55.20;34.03;;;;;;;6.51;100.00;99548.75;10427523;28;20037;-90
2023/12/31 22:58:36;;;;;;;32.00;21.33;;;;;;;6.43;100.00;99535.53;10443837;28;20048;-85
2023/12/31 23:03:37;;;;;;;70.03;41.55;;;;;;;6.29;100.00;99517.91;10427883;28;20029;-88
2023/12/31 23:08:37;;;;;;;282.15;192.07;;;;;;;6.35;100.00;99542.31;10426853;28;20117;-88